Time;durP1;ratioP1;P1;durP2;ratioP2;P2;SDS_P1;SDS_P2;PMS_P1;PMS_P2;Temp;Humidity;BMP_temperature;BMP_pressure;BME280_temperature;BME280_humidity;BME280_pressure;Samples;Min_cycle;Max_cycle;Signal;HPM_P1;HPM_P2
2023/10/28 00:00:30;;;;;;;28.20;5.80;;;;;;;16.09;97.79;97540.30;78390;1298;3051732;-66
2023/10/28 00:02:56;;;;;;;32.60;6.90;;;;;;;15.93;98.79;97531.84;79620;1298;3019313;-67
2023/10/28 00:05:24;;;;;;;23.10;6.70;;;;;;;15.80;99.73;97528.48;79602;1295;3011806;-68
2023/10/28 00:07:52;;;;;;;26.60;5.70;;;;;;;15.64;100.00;97523.11;78356;1298;3068842;-69
2023/10/28 00:10:21;;;;;;;27.70;6.70;;;;;;;15.98;99.98;97516.23;79636;1298;3011974;-69
2023/10/28 00:12:49;;;;;;;28.40;6.50;;;;;;;16.19;99.23;97511.34;79565;1294;3011933;-67
2023/10/28 00:15:21;;;;;;;28.90;6.50;;;;;;;16.03;99.75;97502.42;78365;1298;3052474;-69
2023/10/28 00:17:48;;;;;;;24.40;7.00;;;;;;;15.94;100.00;97503.27;79610;1296;3013357;-69
2023/10/28 00:20:17;;;;;;;31.70;5.90;;;;;;;15.67;100.00;97504.65;78361;1298;3050959;-68
2023/10/28 00:22:45;;;;;;;22.90;4.60;;;;;;;16.07;100.00;97494.51;79730;1298;3011897;-68
2023/10/28 00:25:13;;;;;;;27.20;6.90;;;;;;;16.29;99.90;97489.88;79575;1298;3011389;-68
2023/10/28 00:27:42;;;;;;;22.60;7.30;;;;;;;16.05;100.00;97489.87;78420;1298;3055432;-68
2023/10/28 00:30:10;;;;;;;24.60;6.60;;;;;;;15.83;100.00;97494.13;79661;1298;3015268;-67
2023/10/28 00:32:37;;;;;;;32.20;6.30;;;;;;;15.82;100.00;97493.21;79685;1296;3011645;-66
2023/10/28 00:35:07;;;;;;;23.40;5.60;;;;;;;16.13;100.00;97475.90;78216;1300;3052244;-68
2023/10/28 00:37:36;;;;;;;17.30;5.70;;;;;;;16.19;100.00;97468.44;79774;1298;3011353;-66
2023/10/28 00:40:06;;;;;;;24.40;6.80;;;;;;;16.12;100.00;97469.11;78368;1296;3026200;-67
2023/10/28 00:42:36;;;;;;;20.90;5.50;;;;;;;15.92;100.00;97468.89;79640;1294;3011614;-65
2023/10/28 00:45:10;;;;;;;14.00;4.00;;;;;;;15.88;100.00;97462.81;78213;1294;3056414;-69
2023/10/28 00:47:44;;;;;;;31.90;5.50;;;;;;;16.22;100.00;97448.30;79631;1298;3011810;-67
2023/10/28 00:50:14;;;;;;;23.40;5.80;;;;;;;16.34;100.00;97434.45;78382;1298;3053536;-67
2023/10/28 00:52:45;;;;;;;22.50;5.80;;;;;;;16.18;100.00;97440.98;79517;1295;3012883;-69
2023/10/28 00:55:13;;;;;;;17.00;5.50;;;;;;;16.08;100.00;97443.95;78421;1298;3051097;-68
2023/10/28 00:57:41;;;;;;;16.50;4.60;;;;;;;16.50;100.00;97427.41;79501;1295;3013004;-69
2023/10/28 01:00:08;;;;;;;20.20;5.40;;;;;;;16.63;100.00;97411.38;79520;1301;3011528;-68
2023/10/28 01:02:36;;;;;;;17.60;5.40;;;;;;;16.70;100.00;97414.02;78316;1298;3056654;-66
2023/10/28 01:05:03;;;;;;;18.30;5.90;;;;;;;16.41;100.00;97416.85;79616;1294;3013949;-67
2023/10/28 01:07:31;;;;;;;17.40;3.80;;;;;;;16.19;100.00;97419.06;79473;1296;3011582;-68
2023/10/28 01:10:00;;;;;;;20.40;4.50;;;;;;;16.53;100.00;97409.21;78349;1298;3052741;-68
2023/10/28 01:12:26;;;;;;;15.90;5.00;;;;;;;16.80;100.00;97396.23;79510;1301;3012964;-67
2023/10/28 01:14:53;;;;;;;15.20;5.20;;;;;;;16.65;100.00;97395.27;79638;1298;3011401;-67
2023/10/28 01:17:25;;;;;;;14.30;4.20;;;;;;;16.49;100.00;97400.23;78330;1298;3057255;-66
2023/10/28 01:19:53;;;;;;;14.40;3.80;;;;;;;16.44;100.00;97401.30;79552;1295;3011658;-67
2023/10/28 01:22:21;;;;;;;16.40;4.80;;;;;;;16.76;100.00;97390.59;79120;1296;3011770;-69
2023/10/28 01:24:49;;;;;;;15.10;4.50;;;;;;;16.67;100.00;97388.11;79592;1298;3019140;-66
2023/10/28 01:27:17;;;;;;;18.50;5.30;;;;;;;16.65;100.00;97381.88;79457;1298;3012932;-68
2023/10/28 01:29:46;;;;;;;12.60;3.80;;;;;;;16.63;100.00;97379.27;78404;1298;3068201;-67
2023/10/28 01:32:14;;;;;;;13.70;3.90;;;;;;;17.05;100.00;97378.02;79536;1301;3013097;-67
2023/10/28 01:34:47;;;;;;;9.30;4.40;;;;;;;17.16;100.00;97372.80;79613;1294;3011505;-67
2023/10/28 01:37:16;;;;;;;16.10;4.90;;;;;;;17.04;100.00;97369.27;78517;1298;3053714;-68
2023/10/28 01:39:51;;;;;;;20.40;4.80;;;;;;;16.92;100.00;97365.16;79665;1298;3012681;-66
2023/10/28 01:42:20;;;;;;;16.00;3.50;;;;;;;16.78;100.00;97361.00;78430;1298;3052337;-68
2023/10/28 01:44:47;;;;;;;17.50;4.40;;;;;;;17.22;100.00;97355.39;79521;1298;3012837;-67
2023/10/28 01:47:14;;;;;;;16.70;5.20;;;;;;;17.30;100.00;97347.33;79723;1295;3011935;-67
2023/10/28 01:49:45;;;;;;;19.40;6.20;;;;;;;17.02;100.00;97348.52;78231;1296;3048768;-67
2023/10/28 01:52:12;;;;;;;16.70;4.20;;;;;;;16.82;100.00;97349.92;79504;1301;3011802;-66
2023/10/28 01:54:40;;;;;;;18.90;4.60;;;;;;;17.15;100.00;97340.17;78386;1298;3027473;-70
2023/10/28 01:57:09;;;;;;;16.10;5.10;;;;;;;17.20;100.00;97337.74;79651;1298;3012911;-69
2023/10/28 01:59:38;;;;;;;23.70;6.00;;;;;;;17.22;100.00;97335.02;79624;1296;3013077;-67
2023/10/28 02:02:07;;;;;;;23.00;6.60;;;;;;;16.98;100.00;97335.46;78276;1296;3050970;-68
2023/10/28 02:04:34;;;;;;;14.20;4.90;;;;;;;16.80;100.00;97339.41;79691;1298;3013886;-69
2023/10/28 02:07:00;;;;;;;16.90;5.10;;;;;;;17.12;100.00;97327.16;79624;1298;3011573;-72
2023/10/28 02:09:28;;;;;;;17.50;5.90;;;;;;;17.26;100.00;97318.09;78387;1298;3051295;-69
2023/10/28 02:11:54;;;;;;;19.10;6.40;;;;;;;17.23;100.00;97312.14;79696;1298;3013170;-67
2023/10/28 02:14:22;;;;;;;21.20;7.00;;;;;;;17.06;100.00;97315.06;79427;1300;3011664;-67
2023/10/28 02:16:50;;;;;;;21.60;4.80;;;;;;;16.84;100.00;97318.07;78477;1298;3050935;-68
2023/10/28 02:19:21;;;;;;;20.00;7.30;;;;;;;17.30;100.00;97310.74;79666;1295;3013075;-69
2023/10/28 02:21:49;;;;;;;24.60;7.10;;;;;;;17.29;100.00;97308.97;78412;1296;3053476;-69
2023/10/28 02:24:19;;;;;;;23.00;6.50;;;;;;;17.23;100.00;97310.58;79618;1298;3019226;-69
2023/10/28 02:26:47;;;;;;;26.30;5.40;;;;;;;17.05;100.00;97309.50;78276;1300;3052966;-68
2023/10/28 02:29:14;;;;;;;26.70;5.10;;;;;;;17.32;100.00;97301.48;79719;1298;3013365;-70
2023/10/28 02:31:41;;;;;;;18.90;6.30;;;;;;;17.46;100.00;97296.89;79625;1299;3011592;-68
2023/10/28 02:34:11;;;;;;;28.90;8.50;;;;;;;17.24;100.00;97303.78;78405;1298;3048764;-70
2023/10/28 02:36:39;;;;;;;19.80;5.40;;;;;;;16.99;100.00;97296.69;79698;1295;3011940;-68
2023/10/28 02:39:07;;;;;;;24.50;5.40;;;;;;;16.76;100.00;97298.86;78379;1296;3026028;-68
2023/10/28 02:41:33;;;;;;;21.50;5.70;;;;;;;17.19;100.00;97281.36;79613;1298;3013192;-68
2023/10/28 02:44:02;;;;;;;23.00;6.60;;;;;;;17.27;100.00;97265.08;79584;1296;3011446;-69
2023/10/28 02:46:30;;;;;;;24.10;6.40;;;;;;;17.16;100.00;97263.95;78506;1298;3051212;-70
2023/10/28 02:48:56;;;;;;;21.40;5.40;;;;;;;17.05;100.00;97254.36;79495;1297;3013480;-68
2023/10/28 02:51:23;;;;;;;19.60;5.60;;;;;;;17.22;100.00;97256.23;79527;1300;3013139;-68
2023/10/28 02:53:51;;;;;;;22.20;5.90;;;;;;;17.17;100.00;97255.25;78369;1298;3028877;-67
2023/10/28 02:56:17;;;;;;;13.80;6.00;;;;;;;17.15;100.00;97242.42;79637;1300;3018883;-67
2023/10/28 02:58:44;;;;;;;23.20;5.20;;;;;;;17.17;100.00;97220.77;79481;1301;3011736;-69
2023/10/28 03:01:12;;;;;;;14.70;4.00;;;;;;;17.16;100.00;97211.83;78408;1298;3026285;-69
2023/10/28 03:03:41;;;;;;;20.30;4.70;;;;;;;17.34;100.00;97204.09;79719;1298;3015163;-72
2023/10/28 03:06:10;;;;;;;18.60;5.50;;;;;;;17.18;100.00;97212.61;79070;1298;3011722;-70
2023/10/28 03:08:38;;;;;;;20.80;6.10;;;;;;;17.14;100.00;97207.80;79671;1298;3013115;-68
2023/10/28 03:11:06;;;;;;;17.70;4.30;;;;;;;16.99;100.00;97210.95;79742;1299;3013099;-69
2023/10/28 03:13:35;;;;;;;15.70;4.90;;;;;;;16.89;100.00;97220.41;78446;1298;3054480;-67
2023/10/28 03:16:04;;;;;;;17.30;5.20;;;;;;;17.18;100.00;97206.38;79638;1294;3013730;-68
2023/10/28 03:18:34;;;;;;;18.60;6.10;;;;;;;16.96;100.00;97211.60;79146;1295;3013297;-71
2023/10/28 03:21:00;;;;;;;14.70;3.50;;;;;;;16.92;100.00;97200.77;79609;1298;3011504;-70
2023/10/28 03:23:28;;;;;;;18.60;5.00;;;;;;;17.17;100.00;97186.27;79551;1298;3011555;-69
2023/10/28 03:25:56;;;;;;;15.90;5.00;;;;;;;17.42;100.00;97181.91;78382;1296;3048993;-69
2023/10/28 03:28:22;;;;;;;20.90;5.50;;;;;;;17.29;100.00;97176.41;79652;1298;3013475;-68
2023/10/28 03:30:49;;;;;;;20.30;4.50;;;;;;;17.03;100.00;97172.58;79612;1298;3011660;-71
2023/10/28 03:33:17;;;;;;;18.00;4.80;;;;;;;16.97;100.00;97172.07;78345;1296;3026256;-72
2023/10/28 03:35:44;;;;;;;17.40;5.60;;;;;;;17.10;100.00;97167.86;79491;1298;3013471;-69
2023/10/28 03:38:11;;;;;;;19.20;5.60;;;;;;;17.35;100.00;97152.45;79528;1296;3012799;-71
2023/10/28 03:40:39;;;;;;;21.40;6.00;;;;;;;17.30;100.00;97128.21;78278;1298;3050195;-71
2023/10/28 03:43:06;;;;;;;16.80;3.90;;;;;;;17.06;100.00;97129.45;79533;1298;3013433;-69
2023/10/28 03:45:32;;;;;;;21.80;5.10;;;;;;;17.34;100.00;97132.81;79613;1295;3011674;-69
2023/10/28 03:48:01;;;;;;;19.00;5.50;;;;;;;17.51;100.00;97122.71;78361;1308;3026265;-70
2023/10/28 03:50:28;;;;;;;27.50;6.00;;;;;;;17.12;100.00;97130.24;79699;1295;3013547;-69
2023/10/28 03:52:54;;;;;;;19.30;4.10;;;;;;;17.07;100.00;97120.84;79489;1299;3011579;-69
2023/10/28 03:55:23;;;;;;;15.80;4.50;;;;;;;17.18;100.00;97123.27;78338;1301;3050621;-69
2023/10/28 03:57:49;;;;;;;21.20;5.40;;;;;;;17.24;100.00;97127.48;79727;1298;3013378;-69
2023/10/28 04:00:16;;;;;;;24.00;5.70;;;;;;;17.16;100.00;97130.27;79608;1295;3013125;-71
2023/10/28 04:02:44;;;;;;;23.50;6.00;;;;;;;16.93;100.00;97139.00;78320;1298;3050224;-71
2023/10/28 04:05:11;;;;;;;21.30;3.70;;;;;;;16.77;100.00;97148.27;79705;1295;3013333;-70
2023/10/28 04:07:38;;;;;;;18.60;4.80;;;;;;;17.05;100.00;97137.73;79621;1294;3011946;-68
2023/10/28 04:10:07;;;;;;;26.90;7.00;;;;;;;17.10;100.00;97137.40;78364;1296;3026573;-70
2023/10/28 04:12:35;;;;;;;26.50;6.50;;;;;;;17.00;100.00;97130.48;79605;1295;3012938;-68
2023/10/28 04:15:04;;;;;;;18.40;4.50;;;;;;;16.89;100.00;97134.35;78445;1302;3024995;-65
2023/10/28 04:17:32;;;;;;;19.40;5.00;;;;;;;16.90;100.00;97140.20;79726;1298;3014726;-68
2023/10/28 04:19:59;;;;;;;23.20;5.80;;;;;;;17.14;100.00;97141.29;79392;1299;3011653;-67
2023/10/28 04:22:28;;;;;;;23.00;5.40;;;;;;;17.06;100.00;97153.70;78324;1301;3049679;-70
2023/10/28 04:24:55;;;;;;;22.00;5.80;;;;;;;17.02;100.00;97164.31;79628;1295;3012907;-69
2023/10/28 04:27:21;;;;;;;22.50;4.10;;;;;;;16.66;100.00;97173.36;79729;1298;3011470;-71
2023/10/28 04:29:50;;;;;;;24.70;4.80;;;;;;;16.90;100.00;97169.40;78260;1301;3053921;-70
2023/10/28 04:32:20;;;;;;;26.70;5.30;;;;;;;17.13;100.00;97162.90;79634;1298;3013130;-69
2023/10/28 04:34:51;;;;;;;24.30;5.80;;;;;;;17.01;100.00;97163.57;78229;1296;3056474;-69
2023/10/28 04:37:17;;;;;;;24.00;4.40;;;;;;;16.85;100.00;97160.05;79605;1295;3013125;-68
2023/10/28 04:39:46;;;;;;;24.60;5.30;;;;;;;17.02;100.00;97156.63;79159;1298;3011630;-70
2023/10/28 04:42:13;;;;;;;25.50;6.20;;;;;;;17.18;100.00;97148.20;79667;1307;3013980;-69
2023/10/28 04:44:39;;;;;;;25.40;5.70;;;;;;;16.89;100.00;97168.42;79608;1298;3011575;-70
2023/10/28 04:47:07;;;;;;;21.80;4.70;;;;;;;16.82;100.00;97165.45;78387;1295;3026286;-70
2023/10/28 04:49:33;;;;;;;24.60;5.60;;;;;;;17.08;100.00;97154.94;79579;1295;3012993;-72
2023/10/28 04:52:00;;;;;;;22.30;6.20;;;;;;;17.33;100.00;97138.92;79600;1294;3011479;-71
2023/10/28 04:54:28;;;;;;;23.20;6.10;;;;;;;17.21;100.00;97148.95;78361;1295;3026294;-69
2023/10/28 04:56:55;;;;;;;25.20;4.90;;;;;;;16.97;100.00;97156.22;79634;1298;3013513;-70
2023/10/28 04:59:21;;;;;;;23.40;5.80;;;;;;;16.94;100.00;97161.48;79644;1298;3013026;-72
2023/10/28 05:01:50;;;;;;;28.60;5.90;;;;;;;17.32;100.00;97156.11;78333;1295;3026367;-69
2023/10/28 05:04:17;;;;;;;35.60;8.60;;;;;;;17.21;100.00;97151.02;79618;1298;3013792;-69
2023/10/28 05:06:43;;;;;;;25.30;6.70;;;;;;;17.00;100.00;97164.83;79598;1295;3012796;-68
2023/10/28 05:09:15;;;;;;;22.80;5.40;;;;;;;16.84;100.00;97159.84;78407;1294;3052602;-67
2023/10/28 05:11:42;;;;;;;25.60;5.30;;;;;;;17.18;100.00;97172.00;79545;1295;3011922;-68
2023/10/28 05:14:11;;;;;;;24.80;6.40;;;;;;;17.42;100.00;97153.23;78461;1298;3051257;-71
2023/10/28 05:16:38;;;;;;;32.50;7.80;;;;;;;17.32;100.00;97165.25;79660;1295;3013921;-70
2023/10/28 05:19:05;;;;;;;22.20;4.40;;;;;;;17.21;100.00;97176.73;79714;1295;3011975;-70
2023/10/28 05:21:32;;;;;;;23.20;5.30;;;;;;;17.50;100.00;97169.42;78344;1298;3056996;-71
2023/10/28 05:23:59;;;;;;;30.50;6.50;;;;;;;17.75;99.94;97165.52;79740;1298;3013325;-70
2023/10/28 05:26:26;;;;;;;26.50;5.90;;;;;;;17.71;99.56;97164.82;79653;1298;3011640;-71
2023/10/28 05:28:54;;;;;;;20.60;5.60;;;;;;;17.41;100.00;97165.90;78419;1298;3051206;-67
2023/10/28 05:31:21;;;;;;;26.40;4.80;;;;;;;17.33;100.00;97165.86;79656;1298;3012960;-70
2023/10/28 05:33:48;;;;;;;29.20;5.30;;;;;;;17.84;99.20;97174.31;79581;1298;3011483;-70
2023/10/28 05:36:16;;;;;;;22.80;5.80;;;;;;;17.82;97.59;97172.30;78426;1298;3026620;-70
2023/10/28 05:38:42;;;;;;;28.30;5.80;;;;;;;17.78;98.46;97183.59;77320;1295;6204946;-69
2023/10/28 05:41:10;;;;;;;21.20;5.10;;;;;;;17.72;98.50;97190.33;79654;1298;3011662;-71
2023/10/28 05:43:38;;;;;;;25.80;4.90;;;;;;;17.54;99.17;97189.80;78456;1295;3052006;-68
2023/10/28 05:46:04;;;;;;;26.90;5.10;;;;;;;17.80;97.67;97177.84;79669;1295;3013905;-71
2023/10/28 05:48:32;;;;;;;29.60;5.90;;;;;;;18.01;96.34;97180.51;79684;1298;3013605;-72
2023/10/28 05:51:02;;;;;;;21.50;6.30;;;;;;;17.97;95.73;97194.79;78429;1298;3056789;-70
2023/10/28 05:53:29;;;;;;;23.70;4.60;;;;;;;17.65;96.59;97193.51;79626;1295;3012915;-66
2023/10/28 05:55:57;;;;;;;20.30;4.80;;;;;;;17.91;96.06;97192.52;79638;1295;3011883;-69
2023/10/28 05:58:25;;;;;;;33.00;5.70;;;;;;;18.06;94.40;97199.14;78483;1298;3052442;-69
2023/10/28 06:00:52;;;;;;;21.30;5.00;;;;;;;18.06;93.85;97201.27;79613;1298;3013460;-66
2023/10/28 06:03:18;;;;;;;24.20;5.50;;;;;;;18.08;93.98;97201.32;79825;1298;3011822;-67
2023/10/28 06:05:46;;;;;;;20.00;3.90;;;;;;;17.83;95.66;97210.25;78448;1294;3026245;-68
2023/10/28 06:08:13;;;;;;;33.10;4.80;;;;;;;18.18;94.18;97218.08;79679;1298;3021196;-69
2023/10/28 06:10:40;;;;;;;28.90;4.50;;;;;;;18.43;91.33;97212.35;79474;1294;3013089;-68
2023/10/28 06:13:08;;;;;;;26.20;5.70;;;;;;;18.48;90.99;97213.52;78386;1298;3025747;-68
2023/10/28 06:15:35;;;;;;;21.60;4.90;;;;;;;18.37;90.87;97224.34;79704;1298;3014372;-69
2023/10/28 06:18:01;;;;;;;26.60;4.30;;;;;;;18.09;91.56;97226.63;79706;1294;3011894;-72
2023/10/28 06:20:31;;;;;;;19.60;4.50;;;;;;;18.59;87.68;97224.29;78600;1294;3056346;-69
2023/10/28 06:22:57;;;;;;;20.70;3.90;;;;;;;18.56;86.90;97237.89;79882;1291;3012757;-73
2023/10/28 06:25:24;;;;;;;16.00;4.70;;;;;;;18.47;86.02;97220.55;79815;1293;3011772;-71
2023/10/28 06:27:52;;;;;;;18.20;4.40;;;;;;;18.61;85.15;97230.76;78662;1291;3052277;-70
2023/10/28 06:30:18;;;;;;;18.10;4.00;;;;;;;18.25;84.75;97248.46;80394;1295;3013601;-67
2023/10/28 06:32:45;;;;;;;17.50;3.10;;;;;;;18.11;85.29;97247.98;81284;1291;3011736;-69
2023/10/28 06:35:13;;;;;;;17.00;3.10;;;;;;;18.60;83.75;97242.80;78672;1295;3026469;-69
2023/10/28 06:37:40;;;;;;;21.00;3.70;;;;;;;18.92;80.61;97252.59;81261;1291;3011581;-68
2023/10/28 06:40:09;;;;;;;20.90;4.60;;;;;;;18.63;80.89;97262.75;80422;1293;3011565;-69
2023/10/28 06:42:38;;;;;;;15.00;3.50;;;;;;;18.67;80.26;97243.17;78803;1294;3052665;-67
2023/10/28 06:45:10;;;;;;;13.80;3.60;;;;;;;18.37;80.34;97234.08;80190;1294;3013044;-69
2023/10/28 06:47:38;;;;;;;12.60;4.10;;;;;;;18.28;81.01;97236.20;78441;1290;3052930;-69
2023/10/28 06:50:06;;;;;;;19.10;3.00;;;;;;;18.21;80.94;97242.27;79803;1292;3012987;-68
2023/10/28 06:52:33;;;;;;;10.20;2.00;;;;;;;18.63;78.72;97255.79;79877;1292;3011575;-67
2023/10/28 06:55:02;;;;;;;17.10;3.20;;;;;;;18.85;76.47;97258.42;78527;1294;3049970;-68
2023/10/28 06:57:30;;;;;;;12.00;2.80;;;;;;;18.73;76.18;97267.16;79929;1294;3013361;-70
2023/10/28 06:59:58;;;;;;;6.20;2.00;;;;;;;18.51;76.78;97251.78;79822;1294;3011862;-69
2023/10/28 07:02:26;;;;;;;10.70;2.20;;;;;;;18.41;75.82;97278.40;78618;1294;3052860;-70
2023/10/28 07:04:52;;;;;;;11.50;2.40;;;;;;;18.27;75.32;97268.06;79879;1292;3013593;-65
2023/10/28 07:07:19;;;;;;;8.60;1.90;;;;;;;18.10;75.35;97281.17;79813;1292;3013173;-69
2023/10/28 07:09:47;;;;;;;7.30;1.90;;;;;;;18.08;75.03;97276.69;78682;1295;3025861;-67
2023/10/28 07:12:13;;;;;;;8.80;2.10;;;;;;;18.01;74.53;97270.14;79931;1292;3013104;-68
2023/10/28 07:14:40;;;;;;;10.90;1.90;;;;;;;17.92;74.06;97285.77;79947;1294;3011561;-70
2023/10/28 07:17:11;;;;;;;6.40;1.70;;;;;;;17.93;73.36;97280.94;78899;1294;3027710;-67
2023/10/28 07:19:38;;;;;;;6.30;1.90;;;;;;;17.89;72.23;97277.31;79953;1292;3013889;-70
2023/10/28 07:22:06;;;;;;;8.30;1.10;;;;;;;17.90;70.33;97292.23;78613;1292;3026292;-68
2023/10/28 07:24:34;;;;;;;4.90;1.30;;;;;;;17.86;69.05;97323.30;79995;1292;3013062;-70
2023/10/28 07:27:04;;;;;;;6.50;1.40;;;;;;;17.82;68.35;97326.83;79849;1293;3011914;-72
2023/10/28 07:29:32;;;;;;;3.80;1.20;;;;;;;17.75;67.34;97314.66;78475;1292;3055130;-73
2023/10/28 07:31:59;;;;;;;4.00;1.00;;;;;;;17.74;68.00;97307.52;79989;1294;3012833;-71
2023/10/28 07:34:26;;;;;;;4.50;1.40;;;;;;;17.74;68.35;97309.72;79905;1292;3011641;-68
2023/10/28 07:36:54;;;;;;;3.80;1.10;;;;;;;17.72;66.34;97313.79;78662;1292;3027789;-71
2023/10/28 07:39:20;;;;;;;3.70;0.90;;;;;;;17.74;66.03;97321.77;79876;1290;3013098;-67
2023/10/28 07:41:47;;;;;;;6.80;1.00;;;;;;;17.62;64.26;97352.23;79922;1292;3011924;-70
2023/10/28 07:44:15;;;;;;;2.30;1.00;;;;;;;17.60;63.36;97323.69;78849;1292;3027309;-69
2023/10/28 07:46:41;;;;;;;2.30;1.00;;;;;;;17.67;63.61;97303.05;80031;1291;3018556;-68
2023/10/28 07:49:08;;;;;;;1.70;0.50;;;;;;;17.67;63.06;97318.77;79821;1291;3013233;-68
2023/10/28 07:51:36;;;;;;;5.20;0.80;;;;;;;17.74;63.18;97303.20;78673;1292;3027113;-68
2023/10/28 07:54:04;;;;;;;2.00;0.80;;;;;;;17.72;63.36;97324.53;79999;1292;3014855;-71
2023/10/28 07:56:31;;;;;;;5.20;0.80;;;;;;;17.75;62.49;97330.84;80123;1294;3011609;-69
2023/10/28 07:59:02;;;;;;;2.20;1.00;;;;;;;17.68;61.84;97335.69;78635;1291;3053097;-68
2023/10/28 08:01:29;;;;;;;2.60;0.70;;;;;;;17.72;61.59;97345.45;79904;1292;3011595;-68
2023/10/28 08:03:58;;;;;;;1.40;0.50;;;;;;;17.71;61.21;97351.69;79475;1290;3011891;-69
2023/10/28 08:06:24;;;;;;;1.80;0.40;;;;;;;17.71;61.72;97362.71;79875;1291;3020652;-68
2023/10/28 08:08:54;;;;;;;3.30;0.40;;;;;;;17.65;60.69;97348.23;79764;1292;3013167;-69
2023/10/28 08:11:24;;;;;;;2.10;0.70;;;;;;;17.75;59.48;97373.17;78573;1295;3050150;-69
2023/10/28 08:13:53;;;;;;;1.20;0.30;;;;;;;17.76;58.29;97375.52;79758;1294;3013353;-68
2023/10/28 08:16:21;;;;;;;1.90;0.50;;;;;;;17.80;56.25;97364.42;78671;1294;3052738;-72
2023/10/28 08:18:49;;;;;;;1.30;0.20;;;;;;;17.82;56.01;97369.98;79924;1294;3013052;-67
2023/10/28 08:21:18;;;;;;;2.50;0.50;;;;;;;17.76;55.95;97397.73;79849;1290;3011585;-72
2023/10/28 08:23:47;;;;;;;2.10;0.20;;;;;;;17.72;55.92;97397.29;78678;1294;3051539;-68
2023/10/28 08:26:18;;;;;;;5.90;0.40;;;;;;;17.74;56.65;97400.95;79899;1294;3020735;-72
2023/10/28 08:28:52;;;;;;;0.40;0.20;;;;;;;17.74;56.80;97409.28;78561;1298;3052177;-71
2023/10/28 08:31:19;;;;;;;0.20;0.10;;;;;;;17.64;55.39;97456.00;79805;1295;3011360;-72
2023/10/28 08:34:28;;;;;;;2.30;0.30;;;;;;;17.67;55.05;97414.52;78220;1295;3069905;-68
2023/10/28 08:36:54;;;;;;;4.60;0.30;;;;;;;17.60;55.25;97416.05;79872;1295;3013134;-74
2023/10/28 08:39:21;;;;;;;0.10;0.10;;;;;;;17.58;55.17;97418.60;79731;1294;3013084;-67
2023/10/28 08:41:53;;;;;;;0.40;0.10;;;;;;;17.56;54.18;97432.23;78612;1295;3027740;-67
2023/10/28 08:44:29;;;;;;;4.40;0.30;;;;;;;17.56;53.54;97434.38;78713;1298;3049252;-70
2023/10/28 08:46:56;;;;;;;0.40;0.20;;;;;;;17.58;53.78;97406.75;79591;1298;3012481;-67
2023/10/28 08:49:28;;;;;;;1.00;0.20;;;;;;;17.51;52.54;97430.09;79795;1298;3011834;-70
2023/10/28 08:52:01;;;;;;;1.80;0.10;;;;;;;17.56;52.11;97441.85;78663;1294;3051574;-69
2023/10/28 08:54:28;;;;;;;0.60;0.10;;;;;;;17.47;51.30;97435.92;79981;1295;3013100;-73
2023/10/28 08:56:59;;;;;;;1.60;0.20;;;;;;;17.49;51.42;97443.26;79740;1292;3011785;-69
2023/10/28 08:59:26;;;;;;;2.00;0.20;;;;;;;17.52;52.13;97478.08;78544;1298;3049458;-70
2023/10/28 09:01:53;;;;;;;0.30;0.10;;;;;;;17.50;52.57;97476.41;79885;1297;3013616;-70
2023/10/28 09:04:21;;;;;;;1.70;0.50;;;;;;;17.39;52.77;97407.31;79414;1301;3011728;-70
2023/10/28 09:06:52;;;;;;;1.30;0.30;;;;;;;17.44;51.59;97480.97;78530;1294;3051503;-71
2023/10/28 09:09:21;;;;;;;2.90;0.30;;;;;;;17.42;50.09;97440.60;79768;1295;3013553;-71
2023/10/28 09:11:49;;;;;;;2.00;0.30;;;;;;;17.51;50.03;97442.70;78560;1295;3048674;-69
2023/10/28 09:14:16;;;;;;;0.10;0.00;;;;;;;17.52;49.46;97469.89;79788;1291;3011467;-70
2023/10/28 09:16:42;;;;;;;2.10;0.40;;;;;;;17.56;50.26;97459.38;79746;1294;3011878;-69
2023/10/28 09:19:20;;;;;;;0.70;0.30;;;;;;;17.55;50.94;97463.31;78600;1294;3026347;-71
2023/10/28 09:21:48;;;;;;;0.40;0.20;;;;;;;17.49;50.77;97502.52;78780;1291;3070003;-69
2023/10/28 09:24:17;;;;;;;1.20;0.30;;;;;;;17.36;50.89;97469.80;79851;1291;3018198;-71
2023/10/28 09:26:46;;;;;;;4.90;0.30;;;;;;;17.33;51.29;97507.26;79369;1290;3013525;-70
2023/10/28 09:29:29;;;;;;;1.30;0.10;;;;;;;17.22;51.97;97499.42;79847;1292;3018372;-68
2023/10/28 09:32:08;;;;;;;0.30;0.30;;;;;;;17.18;51.51;97479.00;78671;1294;3050667;-69
2023/10/28 09:34:40;;;;;;;2.80;0.20;;;;;;;17.34;51.10;97512.48;78577;1295;3053738;-69
2023/10/28 09:37:09;;;;;;;2.30;0.30;;;;;;;17.20;50.69;97501.92;79919;1292;3011868;-69
2023/10/28 09:39:37;;;;;;;2.60;0.20;;;;;;;17.22;50.30;97505.80;78601;1292;3068679;-71
2023/10/28 09:42:04;;;;;;;0.80;0.30;;;;;;;17.17;50.64;97514.94;79793;1291;3013060;-71
2023/10/28 09:44:33;;;;;;;6.00;0.30;;;;;;;17.15;50.78;97526.06;79990;1292;3013668;-71
2023/10/28 09:47:07;;;;;;;5.40;0.30;;;;;;;17.14;51.28;97510.51;78693;1291;3052745;-71
2023/10/28 09:49:34;;;;;;;0.70;0.20;;;;;;;17.16;51.81;97506.66;79760;1294;3011775;-70
2023/10/28 09:52:07;;;;;;;0.80;0.10;;;;;;;17.12;51.65;97523.61;78491;1298;3051819;-68
2023/10/28 09:54:37;;;;;;;0.50;0.20;;;;;;;17.14;51.17;97557.83;79807;1294;3011851;-68
2023/10/28 09:57:09;;;;;;;0.50;0.30;;;;;;;17.08;51.32;97533.41;78634;1294;3068866;-71
2023/10/28 09:59:37;;;;;;;4.50;0.30;;;;;;;16.96;51.37;97538.86;79986;1291;3012706;-72
2023/10/28 10:02:12;;;;;;;3.60;0.30;;;;;;;16.98;51.08;97553.92;78740;1292;3056901;-68
2023/10/28 10:05:11;;;;;;;0.30;0.20;;;;;;;17.01;51.82;97535.70;78647;1291;3050057;-71
2023/10/28 10:07:39;;;;;;;0.50;0.30;;;;;;;16.99;51.79;97542.61;78587;1294;3053108;-70
2023/10/28 10:10:16;;;;;;;0.20;0.20;;;;;;;17.02;51.90;97543.67;79949;1294;3013538;-69
2023/10/28 10:12:44;;;;;;;0.50;0.20;;;;;;;16.98;52.20;97562.42;78579;1294;3052110;-68
2023/10/28 10:15:13;;;;;;;0.30;0.20;;;;;;;16.99;52.61;97568.84;80015;1294;3018611;-69
2023/10/28 10:18:10;;;;;;;3.10;0.30;;;;;;;17.12;52.76;97574.76;79278;1292;3011766;-70
2023/10/28 10:20:44;;;;;;;0.40;0.30;;;;;;;17.24;52.79;97551.02;78664;1291;3057178;-68
2023/10/28 10:23:11;;;;;;;1.00;0.20;;;;;;;17.40;52.62;97576.91;79911;1291;3012765;-71
2023/10/28 10:25:41;;;;;;;1.10;0.30;;;;;;;17.39;51.65;97583.20;78609;1291;3053280;-71
2023/10/28 10:28:12;;;;;;;0.50;0.10;;;;;;;17.26;51.32;97571.95;79848;1294;3011557;-71
2023/10/28 10:30:41;;;;;;;2.40;0.30;;;;;;;17.14;50.93;97589.66;78720;1297;3053252;-71
2023/10/28 10:33:07;;;;;;;3.90;0.10;;;;;;;17.02;51.55;97624.88;80087;1294;3013192;-69
2023/10/28 10:35:34;;;;;;;0.70;0.30;;;;;;;17.00;51.37;97596.98;79948;1294;3012951;-71
2023/10/28 10:38:13;;;;;;;1.20;0.40;;;;;;;17.01;51.03;97613.87;78772;1294;3055716;-69
2023/10/28 10:40:46;;;;;;;4.20;0.40;;;;;;;16.93;51.32;97624.36;78561;1292;3049012;-69
2023/10/28 10:43:18;;;;;;;0.20;0.20;;;;;;;16.88;51.39;97637.26;79751;1292;3011387;-71
2023/10/28 10:45:46;;;;;;;0.40;0.40;;;;;;;16.76;50.98;97630.53;78693;1292;3050320;-70
2023/10/28 10:48:13;;;;;;;0.50;0.30;;;;;;;16.58;51.42;97648.46;79884;1295;3013690;-69
2023/10/28 10:50:40;;;;;;;1.60;0.40;;;;;;;16.49;51.74;97637.85;79741;1292;3011606;-69
2023/10/28 10:53:08;;;;;;;0.70;0.40;;;;;;;16.45;52.40;97664.29;78577;1291;3052230;-72
2023/10/28 10:55:34;;;;;;;1.10;0.40;;;;;;;16.37;52.49;97651.52;79842;1291;3020796;-71
2023/10/28 10:58:01;;;;;;;0.40;0.30;;;;;;;16.38;52.19;97664.39;79796;1292;3011565;-72
2023/10/28 11:00:28;;;;;;;0.20;0.10;;;;;;;16.37;52.51;97694.07;78694;1294;3026242;-71
2023/10/28 11:02:59;;;;;;;1.20;0.40;;;;;;;16.31;53.19;97666.04;79867;1291;3013394;-76
2023/10/28 11:05:29;;;;;;;1.90;0.70;;;;;;;16.33;53.37;97660.66;79278;1292;3011679;-73
2023/10/28 11:07:56;;;;;;;1.40;0.40;;;;;;;16.43;53.21;97680.36;79793;1292;3011826;-70
2023/10/28 11:10:23;;;;;;;0.80;0.40;;;;;;;16.28;54.20;97695.27;79992;1291;3011546;-71
2023/10/28 11:12:52;;;;;;;1.30;0.60;;;;;;;16.22;54.73;97675.45;78651;1294;3049544;-73
2023/10/28 11:15:22;;;;;;;6.10;0.70;;;;;;;16.28;55.20;97677.09;79879;1291;3013060;-71